地図

経路データ

SID SEASON NUMBER BASIN SUBBASIN NAME ISO_TIME NATURE LAT LON WMO_WIND WMO_PRES WMO_AGENCY TRACK_TYPE DIST2LAND LANDFALL IFLAG USA_AGENCY USA_ATCF_ID USA_LAT USA_LON USA_RECORD USA_STATUS USA_WIND USA_PRES USA_SSHS USA_R34_NE USA_R34_SE USA_R34_SW USA_R34_NW USA_R50_NE USA_R50_SE USA_R50_SW USA_R50_NW USA_R64_NE USA_R64_SE USA_R64_SW USA_R64_NW USA_POCI USA_ROCI USA_RMW USA_EYE TOKYO_LAT TOKYO_LON TOKYO_GRADE TOKYO_WIND TOKYO_PRES TOKYO_R50_DIR TOKYO_R50_LONG TOKYO_R50_SHORT TOKYO_R30_DIR TOKYO_R30_LONG TOKYO_R30_SHORT TOKYO_LAND CMA_LAT CMA_LON CMA_CAT CMA_WIND CMA_PRES HKO_LAT HKO_LON HKO_CAT HKO_WIND HKO_PRES NEWDELHI_LAT NEWDELHI_LON NEWDELHI_GRADE NEWDELHI_WIND NEWDELHI_PRES NEWDELHI_CI NEWDELHI_DP NEWDELHI_POCI REUNION_LAT REUNION_LON REUNION_TYPE REUNION_WIND REUNION_PRES REUNION_TNUM REUNION_CI REUNION_RMW REUNION_R34_NE REUNION_R34_SE REUNION_R34_SW REUNION_R34_NW REUNION_R50_NE REUNION_R50_SE REUNION_R50_SW REUNION_R50_NW REUNION_R64_NE REUNION_R64_SE REUNION_R64_SW REUNION_R64_NW BOM_LAT BOM_LON BOM_TYPE BOM_WIND BOM_PRES BOM_TNUM BOM_CI BOM_RMW BOM_R34_NE BOM_R34_SE BOM_R34_SW BOM_R34_NW BOM_R50_NE BOM_R50_SE BOM_R50_SW BOM_R50_NW BOM_R64_NE BOM_R64_SE BOM_R64_SW BOM_R64_NW BOM_ROCI BOM_POCI BOM_EYE BOM_POS_METHOD BOM_PRES_METHOD NADI_LAT NADI_LON NADI_CAT NADI_WIND NADI_PRES WELLINGTON_LAT WELLINGTON_LON WELLINGTON_WIND WELLINGTON_PRES DS824_LAT DS824_LON DS824_STAGE DS824_WIND DS824_PRES TD9636_LAT TD9636_LON TD9636_STAGE TD9636_WIND TD9636_PRES TD9635_LAT TD9635_LON TD9635_WIND TD9635_PRES TD9635_ROCI NEUMANN_LAT NEUMANN_LON NEUMANN_CLASS NEUMANN_WIND NEUMANN_PRES MLC_LAT MLC_LON MLC_CLASS MLC_WIND MLC_PRES USA_GUST BOM_GUST BOM_GUST_PER REUNION_GUST REUNION_GUST_PER USA_SEAHGT USA_SEARAD_NE USA_SEARAD_SE USA_SEARAD_SW USA_SEARAD_NW STORM_SPEED STORM_DIR
1857251N13300 1857 11 NA CS NOT_NAMED 1857-09-07 12:00:00 TS 12.8000 -60.0000 main 259 239 _____________O -1 12.8000 -60.0000 TD 30 12 275
1857251N13300 1857 11 NA CS NOT_NAMED 1857-09-07 15:00:00 TS 12.8503 -60.6100 main 250 246 _____________P -1 12.8503 -60.6100 TD 30 12 275
1857251N13300 1857 11 NA CS NOT_NAMED 1857-09-07 18:00:00 TS 12.9000 -61.2000 main 246 246 _____________O -1 12.9000 -61.2000 TD 30 11 275
1857251N13300 1857 11 NA CS NOT_NAMED 1857-09-07 21:00:00 TS 12.9498 -61.7575 main 246 246 _____________P -1 12.9498 -61.7575 TD 30 11 275
1857251N13300 1857 11 NA CS NOT_NAMED 1857-09-08 00:00:00 TS 13.0000 -62.3000 main 257 257 _____________O -1 13.0000 -62.3000 TD 30 11 276
1857251N13300 1857 11 NA CS NOT_NAMED 1857-09-08 03:00:00 TS 13.0574 -62.8500 main 268 268 _____________P -1 13.0574 -62.8500 TD 30 11 275
1857251N13300 1857 11 NA CS NOT_NAMED 1857-09-08 06:00:00 TS 13.1000 -63.4000 main 270 270 _____________O -1 13.1000 -63.4000 TD 30 11 273
1857251N13300 1857 11 NA CS NOT_NAMED 1857-09-08 09:00:00 TS 13.1073 -63.9426 main 280 279 _____________P -1 13.1073 -63.9426 TD 30 11 270
1857251N13300 1857 11 NA CS NOT_NAMED 1857-09-08 12:00:00 TS 13.1000 -64.5000 main 281 281 _____________O -1 13.1000 -64.5000 TD 30 11 269
1857251N13300 1857 11 NA CS NOT_NAMED 1857-09-08 15:00:00 TS 13.0925 -65.1001 main 296 281 _____________P -1 13.0925 -65.1001 TD 30 12 270
1857251N13300 1857 11 NA CS NOT_NAMED 1857-09-08 18:00:00 TS 13.1000 -65.7000 main 281 279 _____________O -1 13.1000 -65.7000 TD 30 11 273
1857251N13300 1857 11 NA CS NOT_NAMED 1857-09-08 21:00:00 TS 13.1423 -66.2500 main 279 279 _____________P -1 13.1423 -66.2500 TD 30 11 275
1857251N13300 1857 11 NA CS NOT_NAMED 1857-09-09 00:00:00 TS 13.2000 -66.8000 main 283 248 _____________O -1 13.2000 -66.8000 TD 30 11 276
1857251N13300 1857 11 NA CS NOT_NAMED 1857-09-09 03:00:00 TS 13.2499 -67.3925 main 248 229 _____________P -1 13.2499 -67.3925 TD 30 12 275
1857251N13300 1857 11 NA CS NOT_NAMED 1857-09-09 06:00:00 TS 13.3000 -68.0000 main 229 194 _____________O -1 13.3000 -68.0000 TD 30 12 275
1857251N13300 1857 11 NA CS NOT_NAMED 1857-09-09 09:00:00 TS 13.3499 -68.6075 main 194 164 _____________P -1 13.3499 -68.6075 TD 30 12 275
1857251N13300 1857 11 NA CS NOT_NAMED 1857-09-09 12:00:00 TS 13.4000 -69.2000 main 164 147 _____________O -1 13.4000 -69.2000 TD 30 11 275
1857251N13300 1857 11 NA CS NOT_NAMED 1857-09-09 15:00:00 TS 13.4498 -69.7575 main 145 145 _____________P -1 13.4498 -69.7575 TD 30 11 275
1857251N13300 1857 11 NA CS NOT_NAMED 1857-09-09 18:00:00 TS 13.5000 -70.3000 main 157 144 _____________O -1 13.5000 -70.3000 TD 30 11 275
1857251N13300 1857 11 NA CS NOT_NAMED 1857-09-09 21:00:00 TS 13.5499 -70.8500 main 139 134 _____________P -1 13.5499 -70.8500 TD 30 11 275
1857251N13300 1857 11 NA CS NOT_NAMED 1857-09-10 00:00:00 TS 13.6000 -71.4000 main 134 134 _____________O -1 13.6000 -71.4000 TD 30 11 275
1857251N13300 1857 11 NA CS NOT_NAMED 1857-09-10 03:00:00 TS 13.6499 -71.9575 main 138 138 _____________P -1 13.6499 -71.9575 TD 30 11 275
1857251N13300 1857 11 NA CS NOT_NAMED 1857-09-10 06:00:00 TS 13.7000 -72.5000 main 165 165 _____________O -1 13.7000 -72.5000 TD 30 10 275
1857251N13300 1857 11 NA CS NOT_NAMED 1857-09-10 09:00:00 TS 13.7348 -72.9927 main 189 189 _____________P -1 13.7348 -72.9927 TD 30 10 276
1857251N13300 1857 11 NA CS NOT_NAMED 1857-09-10 12:00:00 TS 13.8000 -73.5000 main 227 227 _____________O -1 13.8000 -73.5000 TD 30 11 281
1857251N13300 1857 11 NA CS NOT_NAMED 1857-09-10 15:00:00 TS 13.9425 -74.0924 main 280 280 _____________P -1 13.9425 -74.0924 TD 30 12 284
1857251N13300 1857 11 NA CS NOT_NAMED 1857-09-10 18:00:00 TS 14.1000 -74.7000 main 329 329 _____________O -1 14.1000 -74.7000 TD 30 12 283
1857251N13300 1857 11 NA CS NOT_NAMED 1857-09-10 21:00:00 TS 14.1998 -75.2577 main 356 356 _____________P -1 14.1998 -75.2577 TD 30 11 281
1857251N13300 1857 11 NA CS NOT_NAMED 1857-09-11 00:00:00 TS 14.3000 -75.8000 main 382 381 _____________O -1 14.3000 -75.8000 TD 30 11 283
1857251N13300 1857 11 NA CS NOT_NAMED 1857-09-11 03:00:00 TS 14.4424 -76.3500 main 379 348 _____________P -1 14.4424 -76.3500 TD 30 11 286
1857251N13300 1857 11 NA CS NOT_NAMED 1857-09-11 06:00:00 TS 14.6000 -76.9000 main 348 335 _____________O -1 14.6000 -76.9000 TD 30 11 286
1857251N13300 1857 11 NA CS NOT_NAMED 1857-09-11 09:00:00 TS 14.7574 -77.4575 main 326 319 _____________P -1 14.7574 -77.4575 TD 30 11 286
1857251N13300 1857 11 NA CS NOT_NAMED 1857-09-11 12:00:00 TS 14.9000 -78.0000 main 324 320 _____________O -1 14.9000 -78.0000 TD 30 10 284
1857251N13300 1857 11 NA CS NOT_NAMED 1857-09-11 15:00:00 TS 15.0073 -78.5076 main 332 332 _____________P -1 15.0073 -78.5076 TD 30 10 282
1857251N13300 1857 11 NA CS NOT_NAMED 1857-09-11 18:00:00 TS 15.1000 -79.0000 main 342 342 _____________O -1 15.1000 -79.0000 TD 30 10 281
1857251N13300 1857 11 NA CS NOT_NAMED 1857-09-11 21:00:00 TS 15.1999 -79.5000 main 355 334 _____________P -1 15.1999 -79.5000 TD 32 10 282
1857251N13300 1857 11 NA CS NOT_NAMED 1857-09-12 00:00:00 TS 15.3000 -80.0000 main 334 282 _____________O -1 15.3000 -80.0000 TS 35 10 282
1857251N13300 1857 11 NA CS NOT_NAMED 1857-09-12 03:00:00 TS 15.3999 -80.5000 main 282 232 _____________P -1 15.3999 -80.5000 TS 37 10 282
1857251N13300 1857 11 NA CS NOT_NAMED 1857-09-12 06:00:00 TS 15.5000 -81.0000 main 232 184 _____________O -1 15.5000 -81.0000 TS 40 10 281
1857251N13300 1857 11 NA CS NOT_NAMED 1857-09-12 09:00:00 TS 15.5849 -81.5076 main 184 141 _____________P -1 15.5849 -81.5076 TS 42 10 282
1857251N13300 1857 11 NA CS NOT_NAMED 1857-09-12 12:00:00 TS 15.7000 -82.0000 main 141 116 _____________O -1 15.7000 -82.0000 TS 45 10 289
1857251N13300 1857 11 NA CS NOT_NAMED 1857-09-12 15:00:00 TS 15.8924 -82.4575 main 117 101 _____________P -1 15.8924 -82.4575 TS 47 10 295
1857251N13300 1857 11 NA CS NOT_NAMED 1857-09-12 18:00:00 TS 16.1000 -82.9000 main 104 99 _____________O -1 16.1000 -82.9000 TS 50 9 293
1857251N13300 1857 11 NA CS NOT_NAMED 1857-09-12 21:00:00 TS 16.2574 -83.3501 main 101 85 _____________P -1 16.2574 -83.3501 TS 50 9 289
1857251N13300 1857 11 NA CS NOT_NAMED 1857-09-13 00:00:00 TS 16.4000 -83.8000 main 85 74 _____________O -1 16.4000 -83.8000 TS 50 9 289
1857251N13300 1857 11 NA CS NOT_NAMED 1857-09-13 03:00:00 TS 16.5499 -84.2576 main 78 78 _____________P -1 16.5499 -84.2576 TS 50 9 289
1857251N13300 1857 11 NA CS NOT_NAMED 1857-09-13 06:00:00 TS 16.7000 -84.7000 main 89 89 _____________O -1 16.7000 -84.7000 TS 50 9 290
1857251N13300 1857 11 NA CS NOT_NAMED 1857-09-13 09:00:00 TS 16.8498 -85.1001 main 100 100 _____________P -1 16.8498 -85.1001 TS 50 8 291
1857251N13300 1857 11 NA CS NOT_NAMED 1857-09-13 12:00:00 TS 17.0000 -85.5000 main 123 123 _____________O -1 17.0000 -85.5000 TS 50 9 291
1857251N13300 1857 11 NA CS NOT_NAMED 1857-09-13 15:00:00 TS 17.1574 -85.9425 main 145 145 _____________P -1 17.1574 -85.9425 TS 52 9 289
1857251N13300 1857 11 NA CS NOT_NAMED 1857-09-13 18:00:00 TS 17.3000 -86.4000 main 165 138 _____________O -1 17.3000 -86.4000 TS 55 9 286
1857251N13300 1857 11 NA CS NOT_NAMED 1857-09-13 21:00:00 TS 17.4074 -86.8501 main 130 94 _____________P -1 17.4074 -86.8501 TS 55 9 283
1857251N13300 1857 11 NA CS NOT_NAMED 1857-09-14 00:00:00 TS 17.5000 -87.3000 main 94 54 _____________O -1 17.5000 -87.3000 TS 55 9 283
1857251N13300 1857 11 NA CS NOT_NAMED 1857-09-14 03:00:00 TS 17.5999 -87.7575 main 43 10 _____________P -1 17.5999 -87.7575 TS 50 9 283
1857251N13300 1857 11 NA CS NOT_NAMED 1857-09-14 06:00:00 TS 17.7000 -88.2000 main 10 0 _____________O -1 17.7000 -88.2000 TS 45 8 283
1857251N13300 1857 11 NA NA NOT_NAMED 1857-09-14 09:00:00 TS 17.7924 -88.6076 main 0 0 _____________P -1 17.7924 -88.6076 TS 40 8 285
1857251N13300 1857 11 NA NA NOT_NAMED 1857-09-14 12:00:00 TS 17.9000 -89.0000 main 0 0 _____________O -1 17.9000 -89.0000 TS 35 8 289
1857251N13300 1857 11 NA NA NOT_NAMED 1857-09-14 15:00:00 TS 18.0500 -89.4074 main 0 0 _____________P -1 18.0500 -89.4074 TS 32 8 292
1857251N13300 1857 11 NA NA NOT_NAMED 1857-09-14 18:00:00 TS 18.2000 -89.8000 main 0 0 _____________O -1 18.2000 -89.8000 TD 30 7 290
1857251N13300 1857 11 NA NA NOT_NAMED 1857-09-14 21:00:00 TS 18.2999 -90.1502 main 0 0 _____________P -1 18.2999 -90.1502 TD 30 7 287
1857251N13300 1857 11 NA NA NOT_NAMED 1857-09-15 00:00:00 TS 18.4000 -90.5000 main 0 0 _____________O -1 18.4000 -90.5000 TD 30 8 289
1857251N13300 1857 11 NA NA NOT_NAMED 1857-09-15 03:00:00 TS 18.5500 -90.8999 main 0 0 _____________P -1 18.5500 -90.8999 TD 30 8 292
1857251N13300 1857 11 NA GM NOT_NAMED 1857-09-15 06:00:00 TS 18.7000 -91.3000 main 10 0 _____________O -1 18.7000 -91.3000 TD 30 8 289
1857251N13300 1857 11 NA GM NOT_NAMED 1857-09-15 09:00:00 TS 18.7999 -91.6577 main 21 21 _____________P -1 18.7999 -91.6577 TD 30 7 287
1857251N13300 1857 11 NA GM NOT_NAMED 1857-09-15 12:00:00 TS 18.9000 -92.0000 main 33 33 _____________O -1 18.9000 -92.0000 TD 30 7 290
1857251N13300 1857 11 NA GM NOT_NAMED 1857-09-15 15:00:00 TS 19.0424 -92.3500 main 44 44 _____________P -1 19.0424 -92.3500 TD 32 7 294
1857251N13300 1857 11 NA GM NOT_NAMED 1857-09-15 18:00:00 TS 19.2000 -92.7000 main 67 67 _____________O -1 19.2000 -92.7000 TS 35 7 295
1857251N13300 1857 11 NA GM NOT_NAMED 1857-09-15 21:00:00 TS 19.3499 -93.0501 main 88 88 _____________P -1 19.3499 -93.0501 TS 35 7 294
1857251N13300 1857 11 NA GM NOT_NAMED 1857-09-16 00:00:00 TS 19.5000 -93.4000 main 124 124 _____________O -1 19.5000 -93.4000 TS 35 7 294
1857251N13300 1857 11 NA GM NOT_NAMED 1857-09-16 03:00:00 TS 19.6499 -93.7501 main 145 145 _____________P -1 19.6499 -93.7501 TS 35 7 294
1857251N13300 1857 11 NA GM NOT_NAMED 1857-09-16 06:00:00 TS 19.8000 -94.1000 main 164 158 _____________O -1 19.8000 -94.1000 TS 35 7 294
1857251N13300 1857 11 NA GM NOT_NAMED 1857-09-16 09:00:00 TS 19.9501 -94.4499 main 167 154 _____________P -1 19.9501 -94.4499 TS 35 7 295
1857251N13300 1857 11 NA GM NOT_NAMED 1857-09-16 12:00:00 TS 20.1000 -94.8000 main 162 _____________O -1 20.1000 -94.8000 TS 35 7 295

IBTrACS Databaseについて

本データベースは、米国NOAAが公開する1842年以降の世界の熱帯低気圧のベストトラックデータアーカイブInternational Best Track Archive for Climate Stewardship (IBTrACS)を、ウェブで閲覧しやすい形式に変換したものです。

最終更新日:2021-10-21